sensor_id;sensor_type;location;lat;lon;timestamp;pressure;altitude;pressure_sealevel;temperature;humidity
44313;BME280;38833;51.142;-0.974;2023-12-04T00:01:44;98597.14;;;26.68;27.20
44313;BME280;38833;51.142;-0.974;2023-12-04T00:04:17;98595.39;;;26.67;27.17
44313;BME280;38833;51.142;-0.974;2023-12-04T00:06:50;98583.34;;;26.82;27.22
44313;BME280;38833;51.142;-0.974;2023-12-04T00:09:24;98567.43;;;26.71;27.11
44313;BME280;38833;51.142;-0.974;2023-12-04T00:11:57;98564.93;;;26.89;27.13
44313;BME280;38833;51.142;-0.974;2023-12-04T00:14:30;98560.10;;;26.62;27.16
44313;BME280;38833;51.142;-0.974;2023-12-04T00:17:04;98551.28;;;26.89;27.23
44313;BME280;38833;51.142;-0.974;2023-12-04T00:19:37;98543.68;;;26.80;27.14
44313;BME280;38833;51.142;-0.974;2023-12-04T00:22:10;98534.91;;;26.64;27.24
44313;BME280;38833;51.142;-0.974;2023-12-04T00:24:44;98528.23;;;26.34;27.25
44313;BME280;38833;51.142;-0.974;2023-12-04T00:27:17;98514.06;;;26.47;27.33
44313;BME280;38833;51.142;-0.974;2023-12-04T00:29:51;98518.80;;;26.65;27.15
44313;BME280;38833;51.142;-0.974;2023-12-04T00:32:24;98515.03;;;26.40;27.33
44313;BME280;38833;51.142;-0.974;2023-12-04T00:34:58;98513.69;;;26.40;27.28
44313;BME280;38833;51.142;-0.974;2023-12-04T00:37:31;98501.20;;;26.43;27.24
44313;BME280;38833;51.142;-0.974;2023-12-04T00:40:06;98490.18;;;26.33;27.28
44313;BME280;38833;51.142;-0.974;2023-12-04T00:42:39;98486.98;;;26.31;27.28
44313;BME280;38833;51.142;-0.974;2023-12-04T00:45:13;98481.88;;;26.23;27.31
44313;BME280;38833;51.142;-0.974;2023-12-04T00:47:46;98472.61;;;26.10;27.41
44313;BME280;38833;51.142;-0.974;2023-12-04T00:50:19;98470.13;;;26.36;27.38
44313;BME280;38833;51.142;-0.974;2023-12-04T00:52:53;98471.67;;;26.28;27.37
44313;BME280;38833;51.142;-0.974;2023-12-04T00:55:26;98465.23;;;26.32;27.34
44313;BME280;38833;51.142;-0.974;2023-12-04T00:57:59;98460.88;;;25.97;27.46
44313;BME280;38833;51.142;-0.974;2023-12-04T01:00:33;98452.41;;;25.87;27.45
44313;BME280;38833;51.142;-0.974;2023-12-04T01:03:06;98451.48;;;25.89;27.42
44313;BME280;38833;51.142;-0.974;2023-12-04T01:05:39;98442.03;;;26.12;27.42
44313;BME280;38833;51.142;-0.974;2023-12-04T01:08:13;98437.13;;;25.98;27.53
44313;BME280;38833;51.142;-0.974;2023-12-04T01:10:46;98432.35;;;25.72;27.49
44313;BME280;38833;51.142;-0.974;2023-12-04T01:13:19;98423.75;;;26.21;27.47
44313;BME280;38833;51.142;-0.974;2023-12-04T01:15:53;98414.77;;;25.87;27.53
44313;BME280;38833;51.142;-0.974;2023-12-04T01:18:26;98413.12;;;25.89;27.47
44313;BME280;38833;51.142;-0.974;2023-12-04T01:20:59;98409.60;;;26.04;27.51
44313;BME280;38833;51.142;-0.974;2023-12-04T01:23:33;98397.19;;;25.66;27.62
44313;BME280;38833;51.142;-0.974;2023-12-04T01:26:06;98388.78;;;25.67;27.56
44313;BME280;38833;51.142;-0.974;2023-12-04T01:28:39;98381.59;;;25.72;27.53
44313;BME280;38833;51.142;-0.974;2023-12-04T01:31:13;98377.07;;;25.52;27.67
44313;BME280;38833;51.142;-0.974;2023-12-04T01:33:46;98372.22;;;25.62;27.53
44313;BME280;38833;51.142;-0.974;2023-12-04T01:36:20;98360.83;;;25.51;27.62
44313;BME280;38833;51.142;-0.974;2023-12-04T01:38:53;98358.20;;;25.39;27.72
44313;BME280;38833;51.142;-0.974;2023-12-04T01:41:26;98352.73;;;25.73;27.63
44313;BME280;38833;51.142;-0.974;2023-12-04T01:43:59;98351.10;;;25.67;27.66
44313;BME280;38833;51.142;-0.974;2023-12-04T01:46:33;98343.24;;;25.66;27.59
44313;BME280;38833;51.142;-0.974;2023-12-04T01:49:06;98343.44;;;25.37;27.60
44313;BME280;38833;51.142;-0.974;2023-12-04T01:51:40;98339.67;;;25.57;27.65
44313;BME280;38833;51.142;-0.974;2023-12-04T01:54:15;98342.91;;;25.66;27.59
44313;BME280;38833;51.142;-0.974;2023-12-04T01:56:49;98333.72;;;25.15;27.78
44313;BME280;38833;51.142;-0.974;2023-12-04T01:59:22;98331.78;;;25.49;27.71
44313;BME280;38833;51.142;-0.974;2023-12-04T02:01:57;98328.44;;;25.36;27.77
44313;BME280;38833;51.142;-0.974;2023-12-04T02:04:32;98328.99;;;25.18;27.67
44313;BME280;38833;51.142;-0.974;2023-12-04T02:07:05;98314.37;;;25.40;27.69
44313;BME280;38833;51.142;-0.974;2023-12-04T02:09:38;98313.62;;;25.45;27.64
44313;BME280;38833;51.142;-0.974;2023-12-04T02:12:12;98316.34;;;25.33;27.67
44313;BME280;38833;51.142;-0.974;2023-12-04T02:14:45;98307.28;;;25.18;27.77
44313;BME280;38833;51.142;-0.974;2023-12-04T02:17:19;98301.27;;;25.24;27.69
44313;BME280;38833;51.142;-0.974;2023-12-04T02:19:53;98299.49;;;25.16;27.74
44313;BME280;38833;51.142;-0.974;2023-12-04T02:22:26;98302.27;;;25.16;27.71
44313;BME280;38833;51.142;-0.974;2023-12-04T02:25:00;98300.53;;;25.58;27.71
44313;BME280;38833;51.142;-0.974;2023-12-04T02:27:37;98290.92;;;25.03;27.80
44313;BME280;38833;51.142;-0.974;2023-12-04T02:30:23;98283.97;;;25.03;27.77
44313;BME280;38833;51.142;-0.974;2023-12-04T02:32:58;98287.03;;;25.18;27.57
44313;BME280;38833;51.142;-0.974;2023-12-04T02:35:34;98285.33;;;25.13;27.57
44313;BME280;38833;51.142;-0.974;2023-12-04T02:38:08;98276.47;;;24.92;27.74
44313;BME280;38833;51.142;-0.974;2023-12-04T02:40:42;98273.70;;;25.14;27.75
44313;BME280;38833;51.142;-0.974;2023-12-04T02:43:16;98267.48;;;25.25;27.80
44313;BME280;38833;51.142;-0.974;2023-12-04T02:45:49;98266.41;;;24.81;27.80
44313;BME280;38833;51.142;-0.974;2023-12-04T02:48:22;98260.78;;;24.82;27.76
44313;BME280;38833;51.142;-0.974;2023-12-04T02:50:56;98256.30;;;24.69;27.84
44313;BME280;38833;51.142;-0.974;2023-12-04T02:53:29;98253.27;;;24.72;27.79
44313;BME280;38833;51.142;-0.974;2023-12-04T02:56:04;98244.43;;;24.85;27.87
44313;BME280;38833;51.142;-0.974;2023-12-04T02:58:37;98240.94;;;24.75;27.75
44313;BME280;38833;51.142;-0.974;2023-12-04T03:01:10;98233.91;;;24.87;27.81
44313;BME280;38833;51.142;-0.974;2023-12-04T03:03:44;98225.50;;;24.82;27.79
44313;BME280;38833;51.142;-0.974;2023-12-04T03:06:17;98219.74;;;24.81;27.79
44313;BME280;38833;51.142;-0.974;2023-12-04T03:08:51;98215.20;;;24.71;27.89
44313;BME280;38833;51.142;-0.974;2023-12-04T03:11:25;98215.26;;;24.75;27.80
44313;BME280;38833;51.142;-0.974;2023-12-04T03:14:00;98210.72;;;24.48;27.85
44313;BME280;38833;51.142;-0.974;2023-12-04T03:16:34;98201.54;;;24.65;27.87
44313;BME280;38833;51.142;-0.974;2023-12-04T03:19:07;98201.71;;;24.59;27.91
44313;BME280;38833;51.142;-0.974;2023-12-04T03:21:40;98202.21;;;24.38;27.87
44313;BME280;38833;51.142;-0.974;2023-12-04T03:24:14;98200.28;;;24.71;27.92
44313;BME280;38833;51.142;-0.974;2023-12-04T03:26:47;98204.95;;;24.31;27.90
44313;BME280;38833;51.142;-0.974;2023-12-04T03:29:20;98199.98;;;24.48;27.93
44313;BME280;38833;51.142;-0.974;2023-12-04T03:31:54;98193.30;;;24.49;27.93
44313;BME280;38833;51.142;-0.974;2023-12-04T03:34:27;98188.23;;;24.49;27.85
44313;BME280;38833;51.142;-0.974;2023-12-04T03:37:00;98181.88;;;24.66;27.86
44313;BME280;38833;51.142;-0.974;2023-12-04T03:39:34;98179.60;;;24.63;27.88
44313;BME280;38833;51.142;-0.974;2023-12-04T03:42:07;98170.70;;;24.58;27.97
44313;BME280;38833;51.142;-0.974;2023-12-04T03:44:40;98161.21;;;24.59;27.91
44313;BME280;38833;51.142;-0.974;2023-12-04T03:47:14;98161.16;;;24.35;27.87
44313;BME280;38833;51.142;-0.974;2023-12-04T03:49:47;98159.40;;;24.32;27.90
44313;BME280;38833;51.142;-0.974;2023-12-04T03:52:21;98155.64;;;24.33;28.06
44313;BME280;38833;51.142;-0.974;2023-12-04T03:54:54;98151.92;;;24.56;28.09
44313;BME280;38833;51.142;-0.974;2023-12-04T03:57:27;98146.68;;;24.27;28.12
44313;BME280;38833;51.142;-0.974;2023-12-04T04:00:00;98151.61;;;24.33;28.02
44313;BME280;38833;51.142;-0.974;2023-12-04T04:02:34;98149.02;;;24.38;27.96
44313;BME280;38833;51.142;-0.974;2023-12-04T04:05:08;98141.26;;;24.31;27.98
44313;BME280;38833;51.142;-0.974;2023-12-04T04:07:41;98141.19;;;24.24;28.04
44313;BME280;38833;51.142;-0.974;2023-12-04T04:10:14;98140.31;;;24.21;28.02
44313;BME280;38833;51.142;-0.974;2023-12-04T04:12:47;98137.12;;;24.23;28.00
44313;BME280;38833;51.142;-0.974;2023-12-04T04:15:21;98139.43;;;24.17;28.03
44313;BME280;38833;51.142;-0.974;2023-12-04T04:17:54;98134.90;;;24.07;28.15
44313;BME280;38833;51.142;-0.974;2023-12-04T04:20:28;98127.97;;;24.38;28.07
44313;BME280;38833;51.142;-0.974;2023-12-04T04:23:01;98126.58;;;24.06;28.11
44313;BME280;38833;51.142;-0.974;2023-12-04T04:25:34;98124.40;;;24.01;28.11
44313;BME280;38833;51.142;-0.974;2023-12-04T04:28:07;98113.12;;;24.05;28.06
44313;BME280;38833;51.142;-0.974;2023-12-04T04:30:41;98110.32;;;23.91;28.17
44313;BME280;38833;51.142;-0.974;2023-12-04T04:33:14;98109.24;;;23.93;28.12
44313;BME280;38833;51.142;-0.974;2023-12-04T04:35:47;98109.90;;;24.02;28.07
44313;BME280;38833;51.142;-0.974;2023-12-04T04:38:21;98106.08;;;23.90;28.11
44313;BME280;38833;51.142;-0.974;2023-12-04T04:40:54;98103.95;;;23.94;28.09
44313;BME280;38833;51.142;-0.974;2023-12-04T04:43:27;98105.23;;;23.79;28.16
44313;BME280;38833;51.142;-0.974;2023-12-04T04:46:00;98100.48;;;24.02;27.99
44313;BME280;38833;51.142;-0.974;2023-12-04T04:48:34;98100.16;;;24.18;28.03
44313;BME280;38833;51.142;-0.974;2023-12-04T04:51:08;98095.72;;;23.75;28.15
44313;BME280;38833;51.142;-0.974;2023-12-04T04:53:41;98094.13;;;23.83;28.09
44313;BME280;38833;51.142;-0.974;2023-12-04T04:56:15;98092.69;;;23.80;28.11
44313;BME280;38833;51.142;-0.974;2023-12-04T04:58:48;98092.84;;;23.99;28.18
44313;BME280;38833;51.142;-0.974;2023-12-04T05:01:22;98089.06;;;23.66;28.20
44313;BME280;38833;51.142;-0.974;2023-12-04T05:03:56;98086.30;;;23.91;28.20
44313;BME280;38833;51.142;-0.974;2023-12-04T05:06:29;98080.58;;;24.12;28.18
44313;BME280;38833;51.142;-0.974;2023-12-04T05:09:03;98072.10;;;23.63;28.20
44313;BME280;38833;51.142;-0.974;2023-12-04T05:11:36;98064.41;;;23.96;28.35
44313;BME280;38833;51.142;-0.974;2023-12-04T05:14:10;98060.06;;;23.54;28.28
44313;BME280;38833;51.142;-0.974;2023-12-04T05:16:43;98056.49;;;23.80;28.28
44313;BME280;38833;51.142;-0.974;2023-12-04T05:19:16;98054.21;;;23.74;28.33
44313;BME280;38833;51.142;-0.974;2023-12-04T05:21:50;98055.33;;;23.97;28.20
44313;BME280;38833;51.142;-0.974;2023-12-04T05:24:23;98049.69;;;23.64;28.24
44313;BME280;38833;51.142;-0.974;2023-12-04T05:26:56;98049.47;;;23.74;28.41
44313;BME280;38833;51.142;-0.974;2023-12-04T05:29:35;98045.09;;;24.08;28.27
44313;BME280;38833;51.142;-0.974;2023-12-04T05:32:08;98040.16;;;23.87;28.05
44313;BME280;38833;51.142;-0.974;2023-12-04T05:34:41;98040.77;;;23.93;27.75
44313;BME280;38833;51.142;-0.974;2023-12-04T05:37:15;98037.66;;;23.85;27.62
44313;BME280;38833;51.142;-0.974;2023-12-04T05:39:48;98040.83;;;23.87;27.54
44313;BME280;38833;51.142;-0.974;2023-12-04T05:42:21;98041.26;;;24.36;27.51
44313;BME280;38833;51.142;-0.974;2023-12-04T05:44:55;98035.18;;;23.88;28.03
44313;BME280;38833;51.142;-0.974;2023-12-04T05:47:28;98031.05;;;23.81;28.13
44313;BME280;38833;51.142;-0.974;2023-12-04T05:50:02;98027.77;;;24.72;27.54
44313;BME280;38833;51.142;-0.974;2023-12-04T05:52:36;98027.21;;;24.61;27.71
44313;BME280;38833;51.142;-0.974;2023-12-04T05:55:10;98028.21;;;24.59;27.84
44313;BME280;38833;51.142;-0.974;2023-12-04T05:57:43;98028.65;;;24.33;27.90
44313;BME280;38833;51.142;-0.974;2023-12-04T06:00:17;98023.08;;;24.28;27.99
44313;BME280;38833;51.142;-0.974;2023-12-04T06:02:51;98025.02;;;24.13;28.03
44313;BME280;38833;51.142;-0.974;2023-12-04T06:05:24;98014.72;;;24.75;27.72
44313;BME280;38833;51.142;-0.974;2023-12-04T06:07:58;98006.74;;;24.64;27.68
44313;BME280;38833;51.142;-0.974;2023-12-04T06:10:31;98006.20;;;25.46;27.44
44313;BME280;38833;51.142;-0.974;2023-12-04T06:13:04;98003.64;;;25.14;27.58
44313;BME280;38833;51.142;-0.974;2023-12-04T06:15:38;97997.81;;;25.24;27.56
44313;BME280;38833;51.142;-0.974;2023-12-04T06:18:11;97998.89;;;25.32;27.54
44313;BME280;38833;51.142;-0.974;2023-12-04T06:20:45;97997.47;;;25.16;27.53
44313;BME280;38833;51.142;-0.974;2023-12-04T06:23:18;97993.91;;;25.18;27.39
44313;BME280;38833;51.142;-0.974;2023-12-04T06:25:52;97989.93;;;25.41;27.24
44313;BME280;38833;51.142;-0.974;2023-12-04T06:28:26;97984.23;;;25.29;27.41
44313;BME280;38833;51.142;-0.974;2023-12-04T06:31:00;97982.88;;;25.57;27.22
44313;BME280;38833;51.142;-0.974;2023-12-04T06:33:34;97983.13;;;25.89;26.93
44313;BME280;38833;51.142;-0.974;2023-12-04T06:36:09;97980.61;;;25.71;27.21
44313;BME280;38833;51.142;-0.974;2023-12-04T06:38:47;97978.20;;;26.00;26.99
44313;BME280;38833;51.142;-0.974;2023-12-04T06:41:25;97975.95;;;25.96;26.82
44313;BME280;38833;51.142;-0.974;2023-12-04T06:43:59;97976.74;;;25.94;27.14
44313;BME280;38833;51.142;-0.974;2023-12-04T06:46:36;97975.00;;;26.46;26.71
44313;BME280;38833;51.142;-0.974;2023-12-04T06:49:11;97971.94;;;26.42;26.55
44313;BME280;38833;51.142;-0.974;2023-12-04T06:51:45;97968.52;;;26.17;26.85
44313;BME280;38833;51.142;-0.974;2023-12-04T06:54:18;97964.41;;;26.21;26.87
44313;BME280;38833;51.142;-0.974;2023-12-04T06:56:52;97966.16;;;26.30;26.81
44313;BME280;38833;51.142;-0.974;2023-12-04T06:59:25;97965.35;;;26.11;26.83
44313;BME280;38833;51.142;-0.974;2023-12-04T07:01:59;97965.42;;;26.57;26.46
44313;BME280;38833;51.142;-0.974;2023-12-04T07:04:32;97967.75;;;26.21;26.61
44313;BME280;38833;51.142;-0.974;2023-12-04T07:07:05;97963.59;;;26.75;26.38
44313;BME280;38833;51.142;-0.974;2023-12-04T07:09:39;97965.59;;;26.64;26.30
44313;BME280;38833;51.142;-0.974;2023-12-04T07:12:12;97966.55;;;26.58;26.42
44313;BME280;38833;51.142;-0.974;2023-12-04T07:14:45;97965.11;;;27.04;26.21
44313;BME280;38833;51.142;-0.974;2023-12-04T07:17:18;97962.73;;;27.03;26.30
44313;BME280;38833;51.142;-0.974;2023-12-04T07:19:52;97957.43;;;26.84;26.29
44313;BME280;38833;51.142;-0.974;2023-12-04T07:22:25;97954.24;;;26.63;26.50
44313;BME280;38833;51.142;-0.974;2023-12-04T07:24:59;97953.98;;;26.99;26.23
44313;BME280;38833;51.142;-0.974;2023-12-04T07:27:32;97951.50;;;27.22;26.24
44313;BME280;38833;51.142;-0.974;2023-12-04T07:30:07;97951.16;;;27.26;26.09
44313;BME280;38833;51.142;-0.974;2023-12-04T07:32:40;97948.10;;;27.48;26.09
44313;BME280;38833;51.142;-0.974;2023-12-04T07:35:13;97945.29;;;27.75;25.90
44313;BME280;38833;51.142;-0.974;2023-12-04T07:37:47;97947.98;;;26.79;26.33
44313;BME280;38833;51.142;-0.974;2023-12-04T07:40:20;97942.27;;;27.39;26.12
44313;BME280;38833;51.142;-0.974;2023-12-04T07:42:53;97943.21;;;27.35;25.94
44313;BME280;38833;51.142;-0.974;2023-12-04T07:45:27;97942.17;;;27.36;25.95
44313;BME280;38833;51.142;-0.974;2023-12-04T07:48:00;97944.41;;;27.42;25.94
44313;BME280;38833;51.142;-0.974;2023-12-04T07:51:35;97945.12;;;27.37;26.08
44313;BME280;38833;51.142;-0.974;2023-12-04T07:54:08;97945.54;;;27.78;25.70
44313;BME280;38833;51.142;-0.974;2023-12-04T07:56:41;97944.83;;;27.73;25.77
44313;BME280;38833;51.142;-0.974;2023-12-04T07:59:15;97944.03;;;27.49;26.01
44313;BME280;38833;51.142;-0.974;2023-12-04T08:01:48;97941.14;;;27.42;26.08
44313;BME280;38833;51.142;-0.974;2023-12-04T08:04:22;97938.30;;;27.80;26.00
44313;BME280;38833;51.142;-0.974;2023-12-04T08:06:55;97940.35;;;27.59;25.95
44313;BME280;38833;51.142;-0.974;2023-12-04T08:09:29;97938.17;;;27.59;25.98
44313;BME280;38833;51.142;-0.974;2023-12-04T08:12:02;97936.27;;;27.63;25.96
44313;BME280;38833;51.142;-0.974;2023-12-04T08:14:36;97934.57;;;27.61;26.03
44313;BME280;38833;51.142;-0.974;2023-12-04T08:17:09;97932.53;;;27.69;26.00
44313;BME280;38833;51.142;-0.974;2023-12-04T08:19:42;97930.84;;;27.44;26.14
44313;BME280;38833;51.142;-0.974;2023-12-04T08:22:16;97931.19;;;27.17;26.40
44313;BME280;38833;51.142;-0.974;2023-12-04T08:24:50;97933.94;;;27.12;26.47
44313;BME280;38833;51.142;-0.974;2023-12-04T08:27:23;97933.40;;;27.26;26.38
44313;BME280;38833;51.142;-0.974;2023-12-04T08:29:56;97931.19;;;26.86;26.50
44313;BME280;38833;51.142;-0.974;2023-12-04T08:32:29;97931.01;;;26.88;26.68
44313;BME280;38833;51.142;-0.974;2023-12-04T08:35:03;97931.15;;;26.79;26.78
44313;BME280;38833;51.142;-0.974;2023-12-04T08:37:37;97930.83;;;26.98;26.61
44313;BME280;38833;51.142;-0.974;2023-12-04T08:40:11;97932.20;;;26.87;26.70
44313;BME280;38833;51.142;-0.974;2023-12-04T08:42:44;97927.10;;;26.63;26.73
44313;BME280;38833;51.142;-0.974;2023-12-04T08:45:17;97925.94;;;26.72;26.81
44313;BME280;38833;51.142;-0.974;2023-12-04T08:47:51;97926.14;;;27.64;26.20
44313;BME280;38833;51.142;-0.974;2023-12-04T08:50:24;97927.59;;;27.78;26.98
44313;BME280;38833;51.142;-0.974;2023-12-04T08:52:57;97929.11;;;28.08;27.55
44313;BME280;38833;51.142;-0.974;2023-12-04T08:55:31;97927.06;;;27.91;27.49
44313;BME280;38833;51.142;-0.974;2023-12-04T08:58:04;97923.64;;;28.05;28.19
44313;BME280;38833;51.142;-0.974;2023-12-04T09:00:37;97921.68;;;27.82;28.34
44313;BME280;38833;51.142;-0.974;2023-12-04T09:03:11;97924.73;;;27.70;28.31
44313;BME280;38833;51.142;-0.974;2023-12-04T09:05:44;97919.36;;;27.93;28.16
44313;BME280;38833;51.142;-0.974;2023-12-04T09:08:18;97923.73;;;27.77;28.18
44313;BME280;38833;51.142;-0.974;2023-12-04T09:10:51;97925.09;;;27.72;28.33
44313;BME280;38833;51.142;-0.974;2023-12-04T09:13:25;97922.05;;;27.46;28.09
44313;BME280;38833;51.142;-0.974;2023-12-04T09:15:58;97921.55;;;27.70;28.11
44313;BME280;38833;51.142;-0.974;2023-12-04T09:18:31;97920.89;;;28.07;28.02
44313;BME280;38833;51.142;-0.974;2023-12-04T09:21:05;97924.37;;;27.57;27.91
44313;BME280;38833;51.142;-0.974;2023-12-04T09:23:38;97925.37;;;27.61;27.88
44313;BME280;38833;51.142;-0.974;2023-12-04T09:26:11;97930.03;;;27.56;27.84
44313;BME280;38833;51.142;-0.974;2023-12-04T09:28:45;97924.86;;;27.68;27.89
44313;BME280;38833;51.142;-0.974;2023-12-04T09:31:18;97926.12;;;27.57;27.91
44313;BME280;38833;51.142;-0.974;2023-12-04T09:33:52;97925.57;;;27.53;27.91
44313;BME280;38833;51.142;-0.974;2023-12-04T09:36:25;97928.41;;;27.57;27.95
44313;BME280;38833;51.142;-0.974;2023-12-04T09:38:58;97928.90;;;27.59;27.90
44313;BME280;38833;51.142;-0.974;2023-12-04T09:41:32;97931.01;;;27.31;27.90
44313;BME280;38833;51.142;-0.974;2023-12-04T09:44:07;97928.53;;;27.50;27.81
44313;BME280;38833;51.142;-0.974;2023-12-04T09:46:41;97927.34;;;27.47;27.84
44313;BME280;38833;51.142;-0.974;2023-12-04T09:49:15;97927.86;;;27.40;27.89
44313;BME280;38833;51.142;-0.974;2023-12-04T09:51:49;97930.20;;;27.47;28.07
44313;BME280;38833;51.142;-0.974;2023-12-04T09:54:23;97932.65;;;27.13;28.08
44313;BME280;38833;51.142;-0.974;2023-12-04T09:56:57;97930.61;;;27.07;28.16
44313;BME280;38833;51.142;-0.974;2023-12-04T09:59:30;97930.02;;;27.02;28.15
44313;BME280;38833;51.142;-0.974;2023-12-04T10:02:04;97927.03;;;27.14;28.10
44313;BME280;38833;51.142;-0.974;2023-12-04T10:04:38;97924.03;;;26.89;28.21
44313;BME280;38833;51.142;-0.974;2023-12-04T10:07:11;97926.49;;;27.09;28.21
44313;BME280;38833;51.142;-0.974;2023-12-04T10:09:45;97925.07;;;27.28;28.12
44313;BME280;38833;51.142;-0.974;2023-12-04T10:12:19;97923.37;;;27.25;28.22
44313;BME280;38833;51.142;-0.974;2023-12-04T10:15:04;97921.61;;;27.13;28.23
44313;BME280;38833;51.142;-0.974;2023-12-04T10:17:38;97921.22;;;26.93;28.17
44313;BME280;38833;51.142;-0.974;2023-12-04T10:20:13;97920.06;;;26.83;28.18
44313;BME280;38833;51.142;-0.974;2023-12-04T10:22:56;97920.73;;;26.81;28.18
44313;BME280;38833;51.142;-0.974;2023-12-04T10:25:30;97922.22;;;27.03;28.25
44313;BME280;38833;51.142;-0.974;2023-12-04T10:28:08;97919.23;;;26.77;28.17
44313;BME280;38833;51.142;-0.974;2023-12-04T10:30:42;97917.81;;;27.01;28.12
44313;BME280;38833;51.142;-0.974;2023-12-04T10:33:15;97916.31;;;26.83;28.55
44313;BME280;38833;51.142;-0.974;2023-12-04T10:35:48;97912.54;;;26.79;28.45
44313;BME280;38833;51.142;-0.974;2023-12-04T10:38:22;97911.38;;;27.04;28.39
44313;BME280;38833;51.142;-0.974;2023-12-04T10:40:55;97909.17;;;26.83;28.27
44313;BME280;38833;51.142;-0.974;2023-12-04T10:43:29;97908.05;;;26.82;28.26
44313;BME280;38833;51.142;-0.974;2023-12-04T10:46:03;97908.70;;;26.61;28.29
44313;BME280;38833;51.142;-0.974;2023-12-04T10:48:36;97904.01;;;26.59;28.20
44313;BME280;38833;51.142;-0.974;2023-12-04T10:51:11;97903.30;;;26.52;28.24
44313;BME280;38833;51.142;-0.974;2023-12-04T10:53:45;97898.63;;;26.74;28.42
44313;BME280;38833;51.142;-0.974;2023-12-04T10:56:25;97897.76;;;26.65;28.47
44313;BME280;38833;51.142;-0.974;2023-12-04T10:59:01;97896.87;;;26.40;28.63
44313;BME280;38833;51.142;-0.974;2023-12-04T11:01:36;97893.42;;;26.62;28.49
44313;BME280;38833;51.142;-0.974;2023-12-04T11:04:13;97892.54;;;26.82;28.52
44313;BME280;38833;51.142;-0.974;2023-12-04T11:06:52;97888.03;;;26.40;28.70
44313;BME280;38833;51.142;-0.974;2023-12-04T11:09:26;97889.70;;;26.52;28.49
44313;BME280;38833;51.142;-0.974;2023-12-04T11:12:05;97892.11;;;26.58;28.49
44313;BME280;38833;51.142;-0.974;2023-12-04T11:14:44;97888.10;;;26.54;28.39
44313;BME280;38833;51.142;-0.974;2023-12-04T11:17:20;97885.28;;;26.54;28.58
44313;BME280;38833;51.142;-0.974;2023-12-04T11:19:57;97881.03;;;26.43;28.67
44313;BME280;38833;51.142;-0.974;2023-12-04T11:22:32;97873.71;;;26.39;28.67
44313;BME280;38833;51.142;-0.974;2023-12-04T11:25:08;97872.93;;;26.17;28.59
44313;BME280;38833;51.142;-0.974;2023-12-04T11:27:43;97869.95;;;26.38;28.61
44313;BME280;38833;51.142;-0.974;2023-12-04T11:30:17;97867.35;;;26.63;28.62
44313;BME280;38833;51.142;-0.974;2023-12-04T11:32:50;97866.13;;;26.34;28.69
44313;BME280;38833;51.142;-0.974;2023-12-04T11:35:26;97862.61;;;26.55;28.70
44313;BME280;38833;51.142;-0.974;2023-12-04T11:37:59;97860.82;;;26.49;28.71
44313;BME280;38833;51.142;-0.974;2023-12-04T11:40:33;97857.94;;;26.51;28.71
44313;BME280;38833;51.142;-0.974;2023-12-04T11:43:22;97855.98;;;26.41;28.96
44313;BME280;38833;51.142;-0.974;2023-12-04T11:46:07;97852.65;;;26.22;28.76
44313;BME280;38833;51.142;-0.974;2023-12-04T11:48:42;97853.16;;;26.45;28.76
44313;BME280;38833;51.142;-0.974;2023-12-04T11:51:45;97852.31;;;26.21;28.70
44313;BME280;38833;51.142;-0.974;2023-12-04T11:54:21;97855.26;;;26.21;28.86
44313;BME280;38833;51.142;-0.974;2023-12-04T11:57:00;97854.16;;;26.49;28.86
44313;BME280;38833;51.142;-0.974;2023-12-04T11:59:37;97852.71;;;26.55;29.03
44313;BME280;38833;51.142;-0.974;2023-12-04T12:02:11;97850.50;;;26.25;29.15
44313;BME280;38833;51.142;-0.974;2023-12-04T12:04:45;97849.46;;;26.28;29.28
44313;BME280;38833;51.142;-0.974;2023-12-04T12:07:18;97844.00;;;26.22;29.39
44313;BME280;38833;51.142;-0.974;2023-12-04T12:09:51;97844.42;;;26.29;29.46
44313;BME280;38833;51.142;-0.974;2023-12-04T12:12:27;97841.48;;;26.52;29.44
44313;BME280;38833;51.142;-0.974;2023-12-04T12:15:01;97840.67;;;26.43;29.35
44313;BME280;38833;51.142;-0.974;2023-12-04T12:17:35;97837.09;;;26.15;29.43
44313;BME280;38833;51.142;-0.974;2023-12-04T12:20:11;97835.69;;;26.07;29.28
44313;BME280;38833;51.142;-0.974;2023-12-04T12:22:44;97838.20;;;26.12;29.34
44313;BME280;38833;51.142;-0.974;2023-12-04T12:25:18;97836.53;;;25.83;29.44
44313;BME280;38833;51.142;-0.974;2023-12-04T12:27:51;97835.34;;;26.11;29.35
44313;BME280;38833;51.142;-0.974;2023-12-04T12:30:24;97832.11;;;26.10;29.37
44313;BME280;38833;51.142;-0.974;2023-12-04T12:32:58;97830.47;;;26.31;29.41
44313;BME280;38833;51.142;-0.974;2023-12-04T12:35:31;97827.14;;;26.35;29.45
44313;BME280;38833;51.142;-0.974;2023-12-04T12:38:05;97826.07;;;26.31;29.44
44313;BME280;38833;51.142;-0.974;2023-12-04T12:40:39;97824.52;;;26.14;29.50
44313;BME280;38833;51.142;-0.974;2023-12-04T12:43:12;97823.55;;;26.06;29.54
44313;BME280;38833;51.142;-0.974;2023-12-04T12:45:47;97823.62;;;26.14;29.71
44313;BME280;38833;51.142;-0.974;2023-12-04T12:48:20;97823.49;;;26.17;29.60
44313;BME280;38833;51.142;-0.974;2023-12-04T12:50:55;97819.99;;;26.23;29.43
44313;BME280;38833;51.142;-0.974;2023-12-04T12:53:28;97818.14;;;26.00;29.57
44313;BME280;38833;51.142;-0.974;2023-12-04T12:56:02;97819.98;;;26.34;29.46
44313;BME280;38833;51.142;-0.974;2023-12-04T12:58:35;97818.03;;;26.02;29.92
44313;BME280;38833;51.142;-0.974;2023-12-04T13:01:10;97815.46;;;26.13;30.47
44313;BME280;38833;51.142;-0.974;2023-12-04T13:03:45;97812.91;;;25.80;30.47
44313;BME280;38833;51.142;-0.974;2023-12-04T13:06:19;97812.11;;;25.96;30.42
44313;BME280;38833;51.142;-0.974;2023-12-04T13:08:53;97807.34;;;26.22;30.55
44313;BME280;38833;51.142;-0.974;2023-12-04T13:11:27;97806.72;;;26.36;30.49
44313;BME280;38833;51.142;-0.974;2023-12-04T13:14:01;97801.82;;;26.19;30.50
44313;BME280;38833;51.142;-0.974;2023-12-04T13:16:34;97797.53;;;26.14;30.37
44313;BME280;38833;51.142;-0.974;2023-12-04T13:19:08;97794.76;;;26.29;30.54
44313;BME280;38833;51.142;-0.974;2023-12-04T13:21:41;97791.60;;;26.57;30.46
44313;BME280;38833;51.142;-0.974;2023-12-04T13:24:14;97788.97;;;26.92;30.15
44313;BME280;38833;51.142;-0.974;2023-12-04T13:26:48;97789.01;;;26.50;29.80